Sea Ranch Lakes, Florida
Current Conditions -  °F | °C
As of 2:53 PM on Sunday 25 Jan 2015 (Local Time) from KFXE Reporting Station
Few Clouds Few Clouds  
Wind Chill: 67°   Ceiling: Unl
Heat Index: 67°   Visibility: 10mi
Dew Point: 34°   Wind: 6mph
Humidity: 30%   Direction: NA
Pressure: 30"   Gusts: NA
Location:  26.1916°N, 80.1126°W
Report Text: KFXE 251953Z VRB05KT 10SM FEW025 19/01 A3000 RMK AO2 SLP159 T01940011
Loading
Personal Weather Stations






























Interactive Weather Map New forecast layout! Learn more

10-Day Weather Forecast

Advertisements
Track Severe Weather on mobile